DIVIP LLHZ-LLHZ

Flight info

Callsign DIVIP
Flight time 1h 3m
Altitude 15000
Route ATS/VFVR ROUTES
Aircraft BE20/L-V/N

Departure

Time 2026-05-04 11:34
Airport Herzliya Airport (LLHZ)

Arrival

Time 2026-05-04 12:37
Airport Herzliya Airport (LLHZ)
Time Latitude Longitude Altitude Speed Heading
2026-05-04 11:24 32.17894 34.83737 118 ft 0 kts 110°
2026-05-04 11:33 32.17882 34.83850 120 ft 5 kts 72°
2026-05-04 11:33 32.17924 34.83820 121 ft 18 kts 288°
2026-05-04 11:33 32.18046 34.83402 103 ft 91 kts 289°
2026-05-04 11:34 32.18467 34.82674 274 ft 138 kts 353°
2026-05-04 11:34 32.19494 34.83114 549 ft 169 kts 17°
2026-05-04 11:34 32.20661 34.83540 974 ft 177 kts 347°
2026-05-04 11:34 32.21189 34.82492 1165 ft 164 kts 268°
2026-05-04 11:35 32.21292 34.81149 1240 ft 163 kts 277°
2026-05-04 11:35 32.20937 34.80105 966 ft 176 kts 179°
2026-05-04 11:35 32.19750 34.80411 716 ft 172 kts 191°
2026-05-04 11:35 32.18647 34.80090 834 ft 160 kts 202°
2026-05-04 11:36 32.17593 34.79673 846 ft 158 kts 204°
2026-05-04 11:36 32.16540 34.79246 764 ft 161 kts 202°
2026-05-04 11:36 32.15464 34.78897 776 ft 159 kts 199°
2026-05-04 11:36 32.14407 34.78544 758 ft 159 kts 202°
2026-05-04 11:37 32.13348 34.78090 645 ft 163 kts 206°
2026-05-04 11:37 32.12315 34.77613 1121 ft 160 kts 204°
2026-05-04 11:37 32.11236 34.77200 1773 ft 163 kts 202°
2026-05-04 11:37 32.10147 34.76803 2418 ft 164 kts 201°
2026-05-04 11:38 32.09002 34.76642 2744 ft 174 kts 171°
2026-05-04 11:38 32.08205 34.77773 2537 ft 216 kts 94°
2026-05-04 11:38 32.08757 34.79499 2575 ft 233 kts 54°
2026-05-04 11:38 32.09686 34.80976 2554 ft 218 kts 49°
2026-05-04 11:39 32.10758 34.82375 2565 ft 240 kts 46°
2026-05-04 11:39 32.11865 34.83880 2571 ft 251 kts 56°
2026-05-04 11:40 32.07778 34.89650 2987 ft 210 kts 236°
2026-05-04 11:41 32.07337 34.88042 2995 ft 215 kts 267°
2026-05-04 11:41 32.07790 34.86345 2994 ft 226 kts 299°
2026-05-04 11:41 32.09039 34.85155 2995 ft 241 kts 331°
2026-05-04 11:41 32.10731 34.84894 2996 ft 254 kts
2026-05-04 11:42 32.12418 34.85563 2997 ft 258 kts 21°
2026-05-04 11:42 32.14036 34.86498 2994 ft 260 kts 23°
2026-05-04 11:42 32.15641 34.87463 2995 ft 259 kts 24°
2026-05-04 11:42 32.17243 34.88435 2995 ft 258 kts 23°
2026-05-04 11:43 32.18805 34.89485 2987 ft 259 kts 36°
2026-05-04 11:43 32.19889 34.91186 2917 ft 270 kts 67°
2026-05-04 11:43 32.20186 34.93289 2616 ft 252 kts 98°
2026-05-04 11:43 32.19898 34.95262 2314 ft 238 kts 107°
2026-05-04 11:44 32.19207 34.96942 2010 ft 222 kts 139°
2026-05-04 11:44 32.17984 34.97774 1984 ft 189 kts 171°
2026-05-04 11:44 32.16780 34.98105 1971 ft 167 kts 174°
2026-05-04 11:44 32.15715 34.98365 1965 ft 143 kts 182°
2026-05-04 11:45 32.14786 34.98217 1983 ft 148 kts 197°
2026-05-04 11:45 32.13744 34.97698 1989 ft 178 kts 210°
2026-05-04 11:45 32.12582 34.97005 2006 ft 197 kts 212°
2026-05-04 11:45 32.11346 34.96210 1999 ft 207 kts 212°
2026-05-04 11:46 32.10081 34.95380 1973 ft 210 kts 212°
2026-05-04 11:46 32.08812 34.94563 1709 ft 200 kts 212°
2026-05-04 11:46 32.07659 34.93814 1469 ft 176 kts 213°
2026-05-04 11:46 32.06775 34.93247 1260 ft 118 kts 214°
2026-05-04 11:47 32.06075 34.92783 1113 ft 120 kts 213°
2026-05-04 11:47 32.05332 34.92299 969 ft 124 kts 213°
2026-05-04 11:47 32.04575 34.91808 813 ft 124 kts 213°
2026-05-04 11:47 32.03823 34.91310 640 ft 123 kts 212°
2026-05-04 11:48 32.03071 34.90848 472 ft 119 kts 213°
2026-05-04 11:48 32.02357 34.90391 304 ft 114 kts 214°
2026-05-04 11:48 32.01670 34.89935 147 ft 112 kts 212°
2026-05-04 11:48 32.01072 34.89539 117 ft 87 kts 211°
2026-05-04 11:49 32.00434 34.89128 122 ft 131 kts 209°
2026-05-04 11:49 31.99563 34.88589 490 ft 151 kts 213°
2026-05-04 11:49 31.98784 34.87743 1014 ft 156 kts 247°
2026-05-04 11:49 31.98805 34.86488 1705 ft 162 kts 291°
2026-05-04 11:50 31.99439 34.85393 2379 ft 165 kts 304°
2026-05-04 11:50 32.00466 34.84724 2968 ft 186 kts 343°
2026-05-04 11:50 32.01900 34.84804 2999 ft 223 kts
2026-05-04 11:50 32.03500 34.85110 2999 ft 240 kts
2026-05-04 11:51 32.05178 34.85446 2993 ft 248 kts
2026-05-04 11:51 32.06897 34.85791 2996 ft 253 kts
2026-05-04 11:51 32.08637 34.86148 2996 ft 254 kts
2026-05-04 11:51 32.10389 34.86505 2993 ft 255 kts
2026-05-04 11:52 32.12135 34.86855 2993 ft 254 kts
2026-05-04 11:52 32.13879 34.87198 2992 ft 254 kts
2026-05-04 11:52 32.15621 34.87542 2994 ft 254 kts
2026-05-04 11:52 32.17350 34.87916 2985 ft 252 kts 12°
2026-05-04 11:53 32.18865 34.88997 2978 ft 261 kts 44°
2026-05-04 11:53 32.19747 34.90820 2928 ft 251 kts 76°
2026-05-04 11:53 32.19759 34.92773 2683 ft 229 kts 111°
2026-05-04 11:53 32.19147 34.94459 2457 ft 219 kts 126°
2026-05-04 11:55 32.11063 34.95818 1975 ft 152 kts 200°
2026-05-04 11:55 32.10120 34.95336 1967 ft 149 kts 209°
2026-05-04 11:56 32.09142 34.94756 1787 ft 167 kts 211°
2026-05-04 11:56 32.08072 34.94088 1561 ft 179 kts 212°
2026-05-04 11:56 32.06957 34.93352 1306 ft 181 kts 213°
2026-05-04 11:56 32.05895 34.92672 1092 ft 155 kts 212°
2026-05-04 11:57 32.05125 34.92174 897 ft 106 kts 213°
2026-05-04 11:57 32.04462 34.91739 768 ft 120 kts 213°
2026-05-04 11:57 32.03688 34.91232 599 ft 132 kts 213°
2026-05-04 11:57 32.02866 34.90703 414 ft 137 kts 212°
2026-05-04 11:58 32.02040 34.90170 229 ft 129 kts 212°
2026-05-04 11:58 32.01328 34.89712 119 ft 100 kts 212°
2026-05-04 11:58 32.00790 34.89361 116 ft 96 kts 210°
2026-05-04 11:58 32.00045 34.88888 271 ft 138 kts 212°
2026-05-04 11:59 31.99151 34.88277 663 ft 159 kts 220°
2026-05-04 11:59 31.98641 34.87158 1244 ft 163 kts 265°
2026-05-04 11:59 31.99037 34.85895 1870 ft 175 kts 307°
2026-05-04 11:59 32.00061 34.85070 2499 ft 182 kts 330°
2026-05-04 12:00 32.01341 34.84849 2980 ft 201 kts 352°
2026-05-04 12:00 32.02848 34.84845 2997 ft 228 kts 354°
2026-05-04 12:00 32.04487 34.84851 2997 ft 241 kts 355°
2026-05-04 12:00 32.06193 34.84855 2996 ft 248 kts 354°
2026-05-04 12:01 32.07929 34.84869 2996 ft 251 kts 355°
2026-05-04 12:01 32.09677 34.84882 2994 ft 252 kts 355°
2026-05-04 12:02 32.17357 34.89809 3867 ft 242 kts 107°
2026-05-04 12:03 32.16841 34.91703 3984 ft 247 kts 115°
2026-05-04 12:03 32.16211 34.93622 3989 ft 253 kts 116°
2026-05-04 12:03 32.15564 34.95566 3993 ft 256 kts 116°
2026-05-04 12:03 32.14772 34.97413 3985 ft 253 kts 123°
2026-05-04 12:04 32.13995 34.99304 3999 ft 258 kts 119°
2026-05-04 12:04 32.13215 35.01211 3987 ft 256 kts 126°
2026-05-04 12:04 32.12065 35.02766 3992 ft 250 kts 141°
2026-05-04 12:04 32.10779 35.04151 3992 ft 251 kts 143°
2026-05-04 12:05 32.09470 35.05516 3997 ft 251 kts 144°
2026-05-04 12:05 32.08155 35.06882 3991 ft 253 kts 143°
2026-05-04 12:05 32.06843 35.08240 3988 ft 251 kts 144°
2026-05-04 12:05 32.05528 35.09601 3990 ft 252 kts 144°
2026-05-04 12:06 32.04228 35.10940 3984 ft 250 kts 143°
2026-05-04 12:06 32.02917 35.12287 3985 ft 249 kts 144°
2026-05-04 12:06 32.01618 35.13608 3988 ft 245 kts 144°
2026-05-04 12:06 32.00296 35.14928 3995 ft 244 kts 151°
2026-05-04 12:07 31.98766 35.15569 3991 ft 233 kts 183°
2026-05-04 12:07 31.97686 35.15496 3994 ft 231 kts 192°
2026-05-04 12:07 31.95580 35.15021 4001 ft 232 kts 197°
2026-05-04 12:07 31.93997 35.14644 4001 ft 231 kts 197°
2026-05-04 12:08 31.92606 35.13816 3988 ft 223 kts 227°
2026-05-04 12:08 31.91879 35.12276 4004 ft 214 kts 257°
2026-05-04 12:08 31.91687 35.10568 3998 ft 208 kts 264°
2026-05-04 12:08 31.91604 35.08876 3995 ft 206 kts 266°
2026-05-04 12:09 31.91525 35.07189 3991 ft 205 kts 266°
2026-05-04 12:09 31.91660 35.05546 3995 ft 205 kts 289°
2026-05-04 12:09 31.92351 35.04035 3822 ft 215 kts 297°
2026-05-04 12:09 31.93152 35.02512 3218 ft 217 kts 298°
2026-05-04 12:10 31.93681 35.01522 2836 ft 214 kts 298°
2026-05-04 12:10 31.94691 34.99565 2252 ft 201 kts 298°
2026-05-04 12:10 31.95163 34.98676 2085 ft 178 kts 297°
2026-05-04 12:10 31.95690 34.97681 1854 ft 118 kts 294°
2026-05-04 12:11 31.96088 34.96891 1702 ft 116 kts 294°
2026-05-04 12:11 31.96546 34.96006 1535 ft 135 kts 296°
2026-05-04 12:11 31.97054 34.95041 1331 ft 139 kts 296°
2026-05-04 12:11 31.97559 34.94071 1141 ft 138 kts 296°
2026-05-04 12:12 31.98058 34.93112 938 ft 139 kts 296°
2026-05-04 12:12 31.98568 34.92139 740 ft 140 kts 296°
2026-05-04 12:12 31.99074 34.91168 543 ft 139 kts 296°
2026-05-04 12:12 31.99585 34.90220 353 ft 131 kts 298°
2026-05-04 12:13 32.00012 34.89394 145 ft 106 kts 298°
2026-05-04 12:14 32.03798 34.82673 2961 ft 178 kts 299°
2026-05-04 12:15 32.04705 34.81535 2991 ft 209 kts 323°
2026-05-04 12:15 32.06145 34.80952 2997 ft 228 kts 340°
2026-05-04 12:15 32.07725 34.80555 2998 ft 236 kts 342°
2026-05-04 12:15 32.09350 34.80175 2995 ft 240 kts 342°
2026-05-04 12:16 32.11003 34.79803 2992 ft 242 kts 343°
2026-05-04 12:16 32.12669 34.79433 2991 ft 244 kts 343°
2026-05-04 12:16 32.14341 34.79063 2995 ft 244 kts 343°
2026-05-04 12:16 32.16012 34.78689 2990 ft 244 kts 343°
2026-05-04 12:17 32.17656 34.78320 2990 ft 243 kts 343°
2026-05-04 12:17 32.19297 34.77897 2986 ft 235 kts 333°
2026-05-04 12:17 32.20549 34.76785 2992 ft 222 kts 300°
2026-05-04 12:17 32.21016 34.75118 2998 ft 214 kts 268°
2026-05-04 12:18 32.20728 34.73411 2995 ft 212 kts 252°
2026-05-04 12:18 32.20247 34.71767 2995 ft 213 kts 250°
2026-05-04 12:18 32.19733 34.70128 2994 ft 213 kts 250°
2026-05-04 12:18 32.19212 34.68484 2996 ft 213 kts 250°
2026-05-04 12:19 32.18694 34.66844 2994 ft 213 kts 250°
2026-05-04 12:19 32.18097 34.65256 2992 ft 213 kts 236°
2026-05-04 12:19 32.16886 34.64219 2997 ft 225 kts 203°
2026-05-04 12:19 32.15296 34.64159 2996 ft 239 kts 171°
2026-05-04 12:20 32.13751 34.64943 2993 ft 244 kts 158°
2026-05-04 12:20 32.12329 34.66062 2995 ft 251 kts 142°
2026-05-04 12:20 32.11220 34.67680 2994 ft 257 kts 127°
2026-05-04 12:20 32.10309 34.69493 2993 ft 258 kts 124°
2026-05-04 12:21 32.09407 34.71283 2995 ft 257 kts 126°
2026-05-04 12:21 32.08451 34.73095 2745 ft 264 kts 126°
2026-05-04 12:21 32.07502 34.74952 2394 ft 255 kts 124°
2026-05-04 12:21 32.06618 34.76659 2068 ft 234 kts 126°
2026-05-04 12:22 32.05849 34.78142 1787 ft 176 kts 126°
2026-05-04 12:22 32.05298 34.79220 1572 ft 142 kts 128°
2026-05-04 12:22 32.04779 34.80199 1401 ft 146 kts 128°
2026-05-04 12:22 32.04223 34.81275 1195 ft 157 kts 126°
2026-05-04 12:23 32.03661 34.82366 991 ft 155 kts 127°
2026-05-04 12:23 32.03083 34.83475 781 ft 160 kts 126°
2026-05-04 12:23 32.02503 34.84597 567 ft 161 kts 126°
2026-05-04 12:23 32.01925 34.85717 356 ft 158 kts 126°
2026-05-04 12:24 32.01417 34.86693 172 ft 124 kts 126°
2026-05-04 12:24 32.01025 34.87449 116 ft 94 kts 126°
2026-05-04 12:24 32.00682 34.88105 116 ft 116 kts 122°
2026-05-04 12:24 32.00202 34.89081 360 ft 154 kts 121°
2026-05-04 12:25 31.99805 34.90404 628 ft 195 kts 92°
2026-05-04 12:25 32.00474 34.91605 1291 ft 177 kts 19°
2026-05-04 12:25 32.01484 34.92049 1359 ft 135 kts
2026-05-04 12:25 32.02244 34.91840 1035 ft 106 kts 294°
2026-05-04 12:26 32.02310 34.90914 684 ft 121 kts 263°
2026-05-04 12:26 32.01898 34.90092 300 ft 120 kts 213°
2026-05-04 12:26 32.01241 34.89665 120 ft 91 kts 212°
2026-05-04 12:26 32.00754 34.89339 114 ft 86 kts 210°
2026-05-04 12:27 32.00088 34.88906 215 ft 129 kts 210°
2026-05-04 12:27 31.99166 34.88576 583 ft 151 kts 175°
2026-05-04 12:27 31.98726 34.89631 927 ft 181 kts 60°
2026-05-04 12:27 31.99709 34.90588 1144 ft 190 kts 14°
2026-05-04 12:28 32.00964 34.91058 1209 ft 167 kts
2026-05-04 12:28 32.01765 34.90703 697 ft 119 kts 288°
2026-05-04 12:28 32.01591 34.89883 151 ft 111 kts 211°
2026-05-04 12:28 32.01006 34.89501 116 ft 84 kts 208°
2026-05-04 12:29 32.00334 34.89063 232 ft 130 kts 209°
2026-05-04 12:29 31.99445 34.88622 617 ft 146 kts 199°
2026-05-04 12:29 31.98616 34.89236 952 ft 181 kts 97°
2026-05-04 12:29 31.99250 34.90490 1163 ft 190 kts 27°
2026-05-04 12:30 32.00494 34.91005 1277 ft 185 kts
2026-05-04 12:30 32.01574 34.91226 1271 ft 127 kts 344°
2026-05-04 12:30 32.01976 34.90572 641 ft 103 kts 260°
2026-05-04 12:30 32.01853 34.89779 273 ft 92 kts 258°
2026-05-04 12:31 32.01732 34.89011 154 ft 103 kts 258°
2026-05-04 12:31 32.01618 34.88256 119 ft 83 kts 258°
2026-05-04 12:31 32.01521 34.87644 116 ft 85 kts 260°
2026-05-04 12:31 32.01429 34.86760 352 ft 120 kts 281°
2026-05-04 12:32 32.02104 34.86047 778 ft 162 kts 337°
2026-05-04 12:32 32.04594 34.85626 1311 ft 187 kts 349°
2026-05-04 12:32 32.05925 34.85477 1288 ft 199 kts 348°
2026-05-04 12:33 32.07331 34.85285 1196 ft 203 kts 347°
2026-05-04 12:33 32.08787 34.84993 1217 ft 214 kts 343°
2026-05-04 12:33 32.10219 34.84807 1171 ft 200 kts 360°
2026-05-04 12:33 32.11490 34.85333 1087 ft 197 kts 40°
2026-05-04 12:34 32.12425 34.86679 1194 ft 223 kts 52°
2026-05-04 12:34 32.13486 34.88113 1197 ft 234 kts 44°
2026-05-04 12:34 32.14676 34.89419 1254 ft 238 kts 33°
2026-05-04 12:34 32.16148 34.89629 1486 ft 215 kts 322°
2026-05-04 12:35 32.16730 34.88253 1386 ft 181 kts 283°
2026-05-04 12:35 32.17120 34.86772 1263 ft 193 kts 284°
2026-05-04 12:35 32.17544 34.85243 1040 ft 204 kts 283°
2026-05-04 12:35 32.17899 34.83744 1174 ft 170 kts 282°
2026-05-04 12:36 32.18370 34.82837 1162 ft 116 kts 327°
2026-05-04 12:36 32.19135 34.83010 876 ft 122 kts 41°
2026-05-04 12:36 32.19214 34.83948 701 ft 132 kts 109°
2026-05-04 12:36 32.18860 34.85001 639 ft 158 kts 124°
2026-05-04 12:37 32.17925 34.85257 601 ft 148 kts 216°
2026-05-04 12:37 32.17777 34.84325 259 ft 122 kts 285°
2026-05-04 12:37 32.18026 34.83463 105 ft 83 kts 289°
2026-05-04 12:37 32.18136 34.83095 96 ft 11 kts 289°
2026-05-04 12:38 32.18099 34.83101 98 ft 19 kts 109°
2026-05-04 12:38 32.18031 34.83331 103 ft 26 kts 106°
2026-05-04 12:38 32.17952 34.83591 110 ft 40 kts 115°
2026-05-04 12:38 32.17905 34.83698 115 ft 0 kts 109°